Time;durP1;ratioP1;P1;durP2;ratioP2;P2;SDS_P1;SDS_P2;PMS_P1;PMS_P2;Temp;Humidity;BMP_temperature;BMP_pressure;BME280_temperature;BME280_humidity;BME280_pressure;Samples;Min_cycle;Max_cycle;Signal;HPM_P1;HPM_P2
2022/12/11 00:02:03;;;;;;;83.50;25.58;;;0.20;99.90;;;;;;5074922;28;20037;-72
2022/12/11 00:04:30;;;;;;;58.78;22.38;;;0.20;99.90;;;;;;5075663;28;20098;-71
2022/12/11 00:06:55;;;;;;;57.10;24.35;;;0.20;99.90;;;;;;5075258;28;20190;-71
2022/12/11 00:09:21;;;;;;;53.63;22.58;;;0.20;99.90;;;;;;5075134;28;20610;-71
2022/12/11 00:11:47;;;;;;;54.90;22.65;;;0.30;99.90;;;;;;5074713;28;20044;-71
2022/12/11 00:14:14;;;;;;;56.15;22.27;;;0.30;99.90;;;;;;5057937;28;20033;-71
2022/12/11 00:16:40;;;;;;;54.03;23.52;;;0.30;99.90;;;;;;5074672;28;20044;-71
2022/12/11 00:19:06;;;;;;;63.80;23.75;;;0.30;99.90;;;;;;5078542;28;20072;-71
2022/12/11 00:21:32;;;;;;;80.85;24.80;;;0.30;99.90;;;;;;5079001;28;20068;-72
2022/12/11 00:23:57;;;;;;;58.85;22.63;;;0.40;99.90;;;;;;5079141;28;20032;-72
2022/12/11 00:26:23;;;;;;;60.50;24.75;;;0.30;99.90;;;;;;5079766;28;20131;-71
2022/12/11 00:28:55;;;;;;;85.28;25.60;;;0.40;99.90;;;;;;5079020;28;20075;-72
2022/12/11 00:31:21;;;;;;;66.90;25.83;;;0.40;99.90;;;;;;5079230;28;20044;-72
2022/12/11 00:33:48;;;;;;;62.67;22.83;;;0.40;99.90;;;;;;5079563;28;20048;-71
2022/12/11 00:36:16;;;;;;;60.90;25.02;;;0.40;99.90;;;;;;5079032;28;20036;-71
2022/12/11 00:38:42;;;;;;;61.40;23.23;;;0.50;99.90;;;;;;5079016;28;20044;-72
2022/12/11 00:41:08;;;;;;;63.30;24.27;;;0.40;99.90;;;;;;5078767;28;20182;-72
2022/12/11 00:43:34;;;;;;;59.90;23.35;;;0.50;99.90;;;;;;5078963;28;20044;-71
2022/12/11 00:46:00;;;;;;;61.17;23.75;;;0.50;99.90;;;;;;5078394;28;20044;-71
2022/12/11 00:48:25;;;;;;;62.53;24.65;;;0.50;99.90;;;;;;5078372;28;20043;-72
2022/12/11 00:50:51;;;;;;;57.85;22.33;;;0.50;99.90;;;;;;5078561;28;20033;-72
2022/12/11 00:53:16;;;;;;;57.33;22.27;;;0.60;99.90;;;;;;5078453;28;20052;-71
2022/12/11 00:55:43;;;;;;;62.88;22.95;;;0.60;99.90;;;;;;5078643;28;20049;-71
2022/12/11 00:58:10;;;;;;;53.85;22.33;;;0.60;99.90;;;;;;5078824;28;20091;-71
2022/12/11 01:00:36;;;;;;;53.88;22.60;;;0.60;99.90;;;;;;5078878;28;20131;-71
2022/12/11 01:03:02;;;;;;;57.33;22.98;;;0.60;99.90;;;;;;5078304;28;20041;-71
2022/12/11 01:05:28;;;;;;;54.75;21.45;;;0.60;99.90;;;;;;5078939;28;20032;-71
2022/12/11 01:07:53;;;;;;;52.80;22.23;;;0.60;99.90;;;;;;5078897;28;20048;-71
2022/12/11 01:10:25;;;;;;;57.40;21.63;;;0.60;99.90;;;;;;5079176;28;20115;-71
2022/12/11 01:12:58;;;;;;;57.33;22.42;;;0.70;99.90;;;;;;5079067;28;20040;-72
2022/12/11 01:15:27;;;;;;;55.45;22.33;;;0.70;99.90;;;;;;5061478;28;20446;-71
2022/12/11 01:17:53;;;;;;;64.47;24.55;;;0.70;99.90;;;;;;5078800;28;20564;-72
2022/12/11 01:20:20;;;;;;;53.92;22.38;;;0.70;99.90;;;;;;5061509;28;20040;-72
2022/12/11 01:22:46;;;;;;;51.75;20.63;;;0.70;99.90;;;;;;5078549;28;20037;-71
2022/12/11 01:25:11;;;;;;;65.70;24.58;;;0.80;99.90;;;;;;5062145;28;20051;-72
2022/12/11 01:27:37;;;;;;;57.53;23.25;;;0.80;99.90;;;;;;5077954;28;20112;-72
2022/12/11 01:30:06;;;;;;;57.60;21.77;;;0.80;99.90;;;;;;5077524;28;20047;-72
2022/12/11 01:32:33;;;;;;;61.58;22.65;;;0.80;99.90;;;;;;5078369;28;20405;-71
2022/12/11 01:34:58;;;;;;;66.22;24.85;;;0.80;99.90;;;;;;5078142;28;20501;-71
2022/12/11 01:37:24;;;;;;;61.25;23.10;;;0.80;99.90;;;;;;5078131;28;20051;-71
2022/12/11 01:39:50;;;;;;;57.78;22.27;;;0.80;99.90;;;;;;5078160;28;20076;-71
2022/12/11 01:42:18;;;;;;;61.17;23.58;;;0.80;99.90;;;;;;5077867;28;20045;-71
2022/12/11 01:44:43;;;;;;;60.22;22.70;;;0.80;99.90;;;;;;5077720;28;20586;-71
2022/12/11 01:47:09;;;;;;;65.68;23.75;;;0.80;99.90;;;;;;5078169;28;20048;-71
2022/12/11 01:49:35;;;;;;;72.40;24.58;;;0.80;99.90;;;;;;5077894;28;20072;-71
2022/12/11 01:52:07;;;;;;;65.70;23.25;;;0.80;99.90;;;;;;5077663;28;20036;-72
2022/12/11 01:54:34;;;;;;;56.30;22.85;;;0.80;99.90;;;;;;5077932;28;20048;-71
2022/12/11 01:57:04;;;;;;;59.00;21.83;;;0.80;99.90;;;;;;5077899;28;20036;-72
2022/12/11 01:59:36;;;;;;;61.22;21.40;;;0.80;99.90;;;;;;5077606;28;20036;-72
2022/12/11 02:02:24;;;;;;;52.83;21.10;;;0.80;99.90;;;;;;5077229;28;20072;-71
2022/12/11 02:04:50;;;;;;;54.92;22.10;;;0.80;99.90;;;;;;5077192;28;20044;-72
2022/12/11 02:07:16;;;;;;;55.22;21.60;;;0.70;99.90;;;;;;5077497;28;20094;-72
2022/12/11 02:09:43;;;;;;;58.45;20.80;;;0.70;99.90;;;;;;5077507;28;20048;-71
2022/12/11 02:12:36;;;;;;;57.20;23.17;;;0.80;99.90;;;;;;5077385;28;20085;-71
2022/12/11 02:15:09;;;;;;;62.80;21.77;;;0.80;99.90;;;;;;5077110;28;20040;-71
2022/12/11 02:17:51;;;;;;;58.05;21.70;;;0.70;99.90;;;;;;5077258;28;20079;-72
2022/12/11 02:20:32;;;;;;;58.00;21.83;;;0.80;99.90;;;;;;5060665;28;20417;-72
2022/12/11 02:23:14;;;;;;;53.08;20.08;;;0.80;99.90;;;;;;5076408;28;20041;-71
2022/12/11 02:26:16;;;;;;;55.85;20.30;;;0.70;99.90;;;;;;5077084;28;20048;-71
2022/12/11 02:28:50;;;;;;;64.65;21.23;;;0.70;99.90;;;;;;5077087;28;20127;-72
2022/12/11 02:31:23;;;;;;;58.03;22.17;;;0.70;99.90;;;;;;5077087;28;20047;-71
2022/12/11 02:34:09;;;;;;;;;;;0.70;99.90;;;;;;5077401;28;20040;-71
2022/12/11 02:36:39;;;;;;;54.08;20.25;;;0.70;99.90;;;;;;5077016;28;19938;-72
2022/12/11 02:39:07;;;;;;;49.55;18.90;;;0.70;99.90;;;;;;5076557;28;20036;-72
2022/12/11 02:41:33;;;;;;;50.03;20.77;;;0.80;99.90;;;;;;5076025;28;20052;-71
2022/12/11 02:44:02;;;;;;;67.50;22.83;;;0.80;99.90;;;;;;5076575;28;20033;-72
2022/12/11 02:46:29;;;;;;;53.75;21.13;;;0.90;99.90;;;;;;5077034;28;20071;-72
2022/12/11 02:48:56;;;;;;;51.17;20.13;;;0.90;99.90;;;;;;5060333;28;20041;-72
2022/12/11 02:51:27;;;;;;;46.97;20.58;;;0.90;99.90;;;;;;5060237;28;20040;-72
2022/12/11 02:53:57;;;;;;;58.03;21.75;;;1.00;99.90;;;;;;5076426;28;20052;-71
2022/12/11 02:56:33;;;;;;;52.30;20.67;;;1.00;99.90;;;;;;5076314;28;20462;-71
2022/12/11 02:59:04;;;;;;;52.45;20.42;;;1.00;99.90;;;;;;5076562;28;20072;-71
2022/12/11 03:01:30;;;;;;;51.35;20.77;;;1.00;99.90;;;;;;5077010;28;20084;-71
2022/12/11 03:03:57;;;;;;;62.25;22.60;;;1.10;99.90;;;;;;5076366;28;20099;-71
2022/12/11 03:06:30;;;;;;;53.72;21.10;;;1.00;99.90;;;;;;5077036;28;20072;-71
2022/12/11 03:08:56;;;;;;;64.65;23.02;;;1.10;99.90;;;;;;5076707;28;20040;-71
2022/12/11 03:11:22;;;;;;;54.22;21.60;;;1.10;99.90;;;;;;5075959;28;20039;-71
2022/12/11 03:13:47;;;;;;;60.03;23.33;;;1.10;99.90;;;;;;5076543;28;20126;-71
2022/12/11 03:16:22;;;;;;;55.17;22.13;;;1.10;99.90;;;;;;5076567;28;20591;-72
2022/12/11 03:18:57;;;;;;;60.83;22.90;;;1.10;99.90;;;;;;5075921;28;20036;-72
2022/12/11 03:21:24;;;;;;;66.10;22.83;;;1.10;99.90;;;;;;5076296;28;20046;-72
2022/12/11 03:24:25;;;;;;;64.68;22.20;;;1.10;99.90;;;;;;5076436;28;20405;-71
2022/12/11 03:26:59;;;;;;;59.45;21.73;;;1.10;99.90;;;;;;5024050;28;20052;-72
2022/12/11 03:29:30;;;;;;;54.58;21.65;;;1.10;99.90;;;;;;5076496;28;20032;-72
2022/12/11 03:32:08;;;;;;;56.47;21.77;;;1.10;99.90;;;;;;5076094;28;20041;-71
2022/12/11 03:34:40;;;;;;;68.20;23.70;;;1.10;99.90;;;;;;5076193;28;20048;-71
2022/12/11 03:37:07;;;;;;;54.83;21.65;;;1.10;99.90;;;;;;5075858;28;20174;-72
2022/12/11 03:39:38;;;;;;;51.85;21.70;;;1.20;99.90;;;;;;5076311;28;20051;-72
2022/12/11 03:42:08;;;;;;;63.60;22.73;;;1.20;99.90;;;;;;5075850;28;20046;-72
2022/12/11 03:44:35;;;;;;;59.80;22.42;;;1.20;99.90;;;;;;5075434;28;20068;-71
2022/12/11 03:47:05;;;;;;;55.78;21.48;;;1.20;99.90;;;;;;5075211;28;20041;-71
2022/12/11 03:49:42;;;;;;;64.18;23.27;;;1.20;99.90;;;;;;5076180;28;20048;-71
2022/12/11 03:52:10;;;;;;;54.15;21.63;;;1.20;99.90;;;;;;5075426;28;20044;-72
2022/12/11 03:54:36;;;;;;;49.47;21.70;;;1.30;99.90;;;;;;5075209;28;20127;-71
2022/12/11 03:57:04;;;;;;;61.72;22.90;;;1.20;99.90;;;;;;5059300;28;20119;-72
2022/12/11 03:59:30;;;;;;;55.60;22.58;;;1.20;99.90;;;;;;5075665;28;20044;-72
2022/12/11 04:01:55;;;;;;;52.33;21.70;;;1.30;99.90;;;;;;5075704;28;20048;-72
2022/12/11 04:04:21;;;;;;;51.47;22.30;;;1.30;99.90;;;;;;5075123;28;20074;-71
2022/12/11 04:06:46;;;;;;;61.17;22.65;;;1.20;99.90;;;;;;5075015;28;20036;-71
2022/12/11 04:09:12;;;;;;;57.20;21.92;;;1.30;99.90;;;;;;5058821;28;20041;-72
2022/12/11 04:11:38;;;;;;;60.88;22.65;;;1.30;99.90;;;;;;5075093;28;20048;-72
2022/12/11 04:16:50;;;;;;;59.42;23.17;;;1.30;99.90;;;;;;5075525;28;20048;-71
2022/12/11 04:24:49;;;;;;;62.95;22.08;;;1.30;99.90;;;;;;5075335;28;20048;-71
2022/12/11 04:27:47;;;;;;;60.40;22.15;;;1.40;99.90;;;;;;5074975;28;20040;-71
2022/12/11 04:30:04;;;;;;;60.03;23.23;;;1.30;99.90;;;;;;5075094;28;20497;-71
2022/12/11 04:32:29;;;;;;;56.78;22.85;;;1.30;99.90;;;;;;5075449;28;20052;-72
2022/12/11 04:34:55;;;;;;;60.55;24.40;;;1.30;99.90;;;;;;5075280;28;20044;-71
2022/12/11 04:37:20;;;;;;;62.60;23.55;;;1.30;99.90;;;;;;5058031;28;20048;-72
2022/12/11 04:39:46;;;;;;;56.15;22.77;;;1.30;99.90;;;;;;5074546;28;20130;-72
2022/12/11 04:42:11;;;;;;;59.35;22.48;;;1.30;99.90;;;;;;5075031;28;20045;-72
2022/12/11 04:44:37;;;;;;;55.75;22.20;;;1.30;99.90;;;;;;5074862;28;20051;-71
2022/12/11 04:47:03;;;;;;;55.08;23.30;;;1.30;99.90;;;;;;5074681;28;20124;-71
2022/12/11 04:49:28;;;;;;;49.08;22.65;;;1.20;99.90;;;;;;5074895;28;20035;-72
2022/12/11 04:51:54;;;;;;;53.90;23.08;;;1.20;99.90;;;;;;5075136;28;20048;-72
2022/12/11 04:54:19;;;;;;;50.80;21.67;;;1.20;99.90;;;;;;5074618;28;20032;-71
2022/12/11 04:56:45;;;;;;;52.38;21.67;;;1.20;99.90;;;;;;5074498;28;20489;-71
2022/12/11 04:59:10;;;;;;;51.85;21.35;;;1.20;99.90;;;;;;5074514;28;20029;-71
2022/12/11 05:01:36;;;;;;;45.47;20.45;;;1.20;99.90;;;;;;5074176;28;20036;-72
2022/12/11 05:04:01;;;;;;;51.90;22.25;;;1.10;99.90;;;;;;5074253;28;20041;-71
2022/12/11 05:06:27;;;;;;;50.05;21.65;;;1.20;99.90;;;;;;5077546;28;20047;-71
2022/12/11 05:08:52;;;;;;;51.28;21.95;;;1.10;99.90;;;;;;5077534;28;20043;-71
2022/12/11 05:11:18;;;;;;;50.58;22.50;;;1.10;99.90;;;;;;5078213;28;20048;-71
2022/12/11 05:13:44;;;;;;;59.60;22.25;;;1.10;99.90;;;;;;5077489;28;20463;-71
2022/12/11 05:16:13;;;;;;;58.22;22.13;;;1.10;99.90;;;;;;5077703;28;20076;-71
2022/12/11 05:18:39;;;;;;;59.65;23.63;;;1.10;99.90;;;;;;5077616;28;20052;-71
2022/12/11 05:21:07;;;;;;;54.25;21.30;;;1.10;99.90;;;;;;5077479;28;20040;-71
2022/12/11 05:23:33;;;;;;;49.65;21.92;;;1.20;99.90;;;;;;5077719;28;20045;-71
2022/12/11 05:26:01;;;;;;;53.85;21.00;;;1.20;99.90;;;;;;5077022;28;20033;-71
2022/12/11 05:28:31;;;;;;;58.67;23.05;;;1.20;99.90;;;;;;5077287;28;20048;-71
2022/12/11 05:30:58;;;;;;;50.15;21.35;;;1.20;99.90;;;;;;5077340;28;20045;-71
2022/12/11 05:33:24;;;;;;;52.92;22.27;;;1.20;99.90;;;;;;5077206;28;20137;-72
2022/12/11 05:35:50;;;;;;;50.22;21.02;;;1.30;99.90;;;;;;5077095;28;20051;-71
2022/12/11 05:38:16;;;;;;;59.25;24.05;;;1.30;99.90;;;;;;5074114;28;20040;-71
2022/12/11 05:40:42;;;;;;;55.97;22.08;;;1.30;99.90;;;;;;5075156;28;20048;-71
2022/12/11 05:43:08;;;;;;;59.28;23.70;;;1.30;99.90;;;;;;5074083;28;20094;-71
2022/12/11 05:45:33;;;;;;;60.10;23.02;;;1.30;99.90;;;;;;5073861;28;20448;-71
2022/12/11 05:47:59;;;;;;;52.80;21.85;;;1.30;99.90;;;;;;5057449;28;20040;-71
2022/12/11 05:50:25;;;;;;;56.00;23.52;;;1.40;99.90;;;;;;5073884;28;20086;-71
2022/12/11 05:52:51;;;;;;;51.47;22.50;;;1.40;99.90;;;;;;5057174;28;20047;-71
2022/12/11 05:55:16;;;;;;;49.58;21.58;;;1.40;99.90;;;;;;5073768;28;20410;-71
2022/12/11 05:57:42;;;;;;;52.63;22.98;;;1.40;99.90;;;;;;5073811;28;20044;-71
2022/12/11 06:00:10;;;;;;;57.50;23.17;;;1.40;99.90;;;;;;5073736;28;20048;-71
2022/12/11 06:02:36;;;;;;;59.38;23.63;;;1.40;99.90;;;;;;5073651;28;20040;-71
2022/12/11 06:05:01;;;;;;;62.20;23.63;;;1.40;99.90;;;;;;5073595;28;20041;-71
2022/12/11 06:07:27;;;;;;;57.97;24.13;;;1.40;99.90;;;;;;5073941;28;20040;-71
2022/12/11 06:09:52;;;;;;;56.22;23.35;;;1.40;99.90;;;;;;5073629;28;20049;-71
2022/12/11 06:12:18;;;;;;;62.67;23.98;;;1.40;99.90;;;;;;5056780;28;20040;-71
2022/12/11 06:14:43;;;;;;;56.10;23.40;;;1.40;99.90;;;;;;5073572;28;20051;-71
2022/12/11 06:17:09;;;;;;;58.17;22.88;;;1.40;99.90;;;;;;5073247;28;20493;-71
2022/12/11 06:19:35;;;;;;;52.83;23.15;;;1.40;99.90;;;;;;5073378;28;20076;-71
2022/12/11 06:22:00;;;;;;;59.97;23.83;;;1.40;99.90;;;;;;5073259;28;20044;-71
2022/12/11 06:24:26;;;;;;;53.53;22.77;;;1.40;99.90;;;;;;5073172;28;20036;-71
2022/12/11 06:26:51;;;;;;;63.85;22.67;;;1.40;99.90;;;;;;5073186;28;20113;-71
2022/12/11 06:29:17;;;;;;;58.70;22.67;;;1.40;99.90;;;;;;5074465;28;20119;-71
2022/12/11 06:31:42;;;;;;;55.33;22.25;;;1.40;99.90;;;;;;5073039;28;20033;-71
2022/12/11 06:34:11;;;;;;;55.60;23.33;;;1.40;99.90;;;;;;5072969;28;20044;-71
2022/12/11 06:36:37;;;;;;;53.40;21.92;;;1.40;99.90;;;;;;5072987;28;20055;-71
2022/12/11 06:39:03;;;;;;;51.80;22.55;;;1.40;99.90;;;;;;5072970;28;20048;-71
2022/12/11 06:41:28;;;;;;;56.65;22.77;;;1.40;99.90;;;;;;5072871;28;20041;-69
2022/12/11 06:43:54;;;;;;;55.90;22.30;;;1.40;99.90;;;;;;5072719;28;20044;-69
2022/12/11 06:46:20;;;;;;;48.38;21.33;;;1.40;99.90;;;;;;5072921;28;20064;-69
2022/12/11 06:48:47;;;;;;;48.60;21.67;;;1.40;99.90;;;;;;5072781;28;20047;-69
2022/12/11 06:51:22;;;;;;;52.53;22.30;;;1.40;99.90;;;;;;5072965;28;20075;-69
2022/12/11 06:53:53;;;;;;;54.88;21.77;;;1.50;99.90;;;;;;5072788;28;20075;-69
2022/12/11 06:56:19;;;;;;;56.67;22.05;;;1.40;99.90;;;;;;5072564;28;20043;-69
2022/12/11 06:58:45;;;;;;;55.42;21.90;;;1.40;99.90;;;;;;5072603;28;20046;-69
2022/12/11 07:01:16;;;;;;;52.65;22.65;;;1.40;99.90;;;;;;5072521;28;20044;-69
2022/12/11 07:03:42;;;;;;;54.83;22.33;;;1.40;99.90;;;;;;5072375;28;20067;-69
2022/12/11 07:06:08;;;;;;;60.30;22.80;;;1.40;99.90;;;;;;5072449;28;20406;-69
2022/12/11 07:08:33;;;;;;;52.58;22.38;;;1.40;99.90;;;;;;5055763;28;20147;-69
2022/12/11 07:11:07;;;;;;;54.30;21.35;;;1.40;99.90;;;;;;5072400;28;20040;-69
2022/12/11 07:13:33;;;;;;;58.28;22.17;;;1.40;99.90;;;;;;5072635;28;20044;-69
2022/12/11 07:16:03;;;;;;;53.60;22.02;;;1.40;99.90;;;;;;5072201;28;20554;-69
2022/12/11 07:18:31;;;;;;;50.80;21.00;;;1.50;99.90;;;;;;5073668;28;20098;-69
2022/12/11 07:20:59;;;;;;;47.78;20.58;;;1.40;99.90;;;;;;5072194;28;20409;-69
2022/12/11 07:23:27;;;;;;;52.58;22.30;;;1.50;99.90;;;;;;5072063;28;20125;-69
2022/12/11 07:25:53;;;;;;;56.55;21.73;;;1.50;99.90;;;;;;5072316;28;20048;-69
2022/12/11 07:28:18;;;;;;;57.20;22.75;;;1.40;99.90;;;;;;5071520;28;20043;-69
2022/12/11 07:30:44;;;;;;;52.17;22.15;;;1.50;99.90;;;;;;5072080;28;20041;-69
2022/12/11 07:33:09;;;;;;;60.70;24.02;;;1.40;99.90;;;;;;5072106;28;20041;-68
2022/12/11 07:35:35;;;;;;;56.03;22.65;;;1.50;99.90;;;;;;5071934;28;20069;-69
2022/12/11 07:38:01;;;;;;;51.47;20.98;;;1.40;99.90;;;;;;5071990;28;20040;-69
2022/12/11 07:40:26;;;;;;;57.28;23.00;;;1.50;99.90;;;;;;5071902;28;20044;-69
2022/12/11 07:42:52;;;;;;;50.60;21.83;;;1.40;99.90;;;;;;5071809;28;20045;-69
2022/12/11 07:45:18;;;;;;;54.40;21.75;;;1.50;99.90;;;;;;5071735;28;20036;-69
2022/12/11 07:47:44;;;;;;;53.67;21.48;;;1.50;99.90;;;;;;5071824;28;20219;-69
2022/12/11 07:50:09;;;;;;;53.80;22.70;;;1.50;99.90;;;;;;5072185;28;20120;-69
2022/12/11 07:52:35;;;;;;;54.75;21.98;;;1.50;99.90;;;;;;5071819;28;20413;-69
2022/12/11 07:55:00;;;;;;;45.42;20.63;;;1.50;99.90;;;;;;5071997;28;20139;-69
2022/12/11 07:57:27;;;;;;;47.90;20.60;;;1.50;99.90;;;;;;5071818;28;20418;-69
2022/12/11 07:59:53;;;;;;;60.28;23.27;;;1.50;99.90;;;;;;5071790;28;20408;-69
2022/12/11 08:02:18;;;;;;;52.05;21.95;;;1.60;99.90;;;;;;5071726;28;20051;-69
2022/12/11 08:04:44;;;;;;;51.88;21.73;;;1.50;99.90;;;;;;5071959;28;20055;-69
2022/12/11 08:07:09;;;;;;;53.78;23.10;;;1.50;99.90;;;;;;5071970;28;20481;-69
2022/12/11 08:09:35;;;;;;;50.88;22.00;;;1.60;99.90;;;;;;5071743;28;20519;-68
2022/12/11 08:12:00;;;;;;;52.22;21.73;;;1.60;99.90;;;;;;5071743;28;20047;-68
2022/12/11 08:14:26;;;;;;;52.13;21.30;;;1.50;99.90;;;;;;5071821;28;20051;-69
2022/12/11 08:16:52;;;;;;;51.08;21.90;;;1.50;99.90;;;;;;5071589;28;20041;-69
2022/12/11 08:19:17;;;;;;;59.45;23.75;;;1.50;99.90;;;;;;5071847;28;20041;-69
2022/12/11 08:21:43;;;;;;;54.83;22.90;;;1.50;99.90;;;;;;5071839;28;20044;-69
2022/12/11 08:24:08;;;;;;;62.42;23.92;;;1.50;99.90;;;;;;5071440;28;20482;-69
2022/12/11 08:26:34;;;;;;;48.75;21.08;;;1.50;99.90;;;;;;5071597;28;20049;-69
2022/12/11 08:29:01;;;;;;;53.83;22.00;;;1.50;99.90;;;;;;5071548;28;20106;-69
2022/12/11 08:31:27;;;;;;;56.20;23.98;;;1.50;99.90;;;;;;5071727;28;20507;-69
2022/12/11 08:33:54;;;;;;;52.53;21.73;;;1.50;99.90;;;;;;5071530;28;20040;-69
2022/12/11 08:36:21;;;;;;;63.33;22.70;;;1.50;99.90;;;;;;5071786;28;20098;-69
2022/12/11 08:38:47;;;;;;;57.13;23.40;;;1.50;99.90;;;;;;5073201;28;20043;-69
2022/12/11 08:41:22;;;;;;;58.42;23.42;;;1.50;99.90;;;;;;5075239;28;20036;-69
2022/12/11 08:43:48;;;;;;;57.15;23.02;;;1.50;99.90;;;;;;5075109;28;20049;-69
2022/12/11 08:46:14;;;;;;;51.75;22.23;;;1.50;99.90;;;;;;5075121;28;20445;-69
2022/12/11 08:48:41;;;;;;;55.97;21.83;;;1.50;99.90;;;;;;5075419;28;20044;-69
2022/12/11 08:51:11;;;;;;;61.25;23.67;;;1.50;99.90;;;;;;5075049;28;20048;-69
2022/12/11 08:53:37;;;;;;;63.42;22.80;;;1.50;99.90;;;;;;5074990;28;20040;-69
2022/12/11 08:56:06;;;;;;;57.40;23.13;;;1.50;99.90;;;;;;5075116;28;20048;-69
2022/12/11 08:58:32;;;;;;;53.20;22.15;;;1.50;99.90;;;;;;5075169;28;20048;-69
2022/12/11 09:00:57;;;;;;;55.45;24.02;;;1.50;99.90;;;;;;5074911;28;20393;-68
2022/12/11 09:03:23;;;;;;;63.55;24.05;;;1.50;99.90;;;;;;5074668;28;20045;-68
2022/12/11 09:05:49;;;;;;;50.80;22.08;;;1.50;99.90;;;;;;5074947;28;20397;-68
2022/12/11 09:08:15;;;;;;;54.30;23.80;;;1.50;99.90;;;;;;5074754;28;20036;-68
2022/12/11 09:10:40;;;;;;;56.88;24.23;;;1.60;99.90;;;;;;5074685;28;20052;-69
2022/12/11 09:13:06;;;;;;;54.22;22.55;;;1.50;99.90;;;;;;5074615;28;20047;-69
2022/12/11 09:15:32;;;;;;;55.72;23.02;;;1.60;99.90;;;;;;5074776;28;20051;-69
2022/12/11 09:17:57;;;;;;;49.90;21.73;;;1.60;99.90;;;;;;5074584;28;20101;-68
2022/12/11 09:20:23;;;;;;;52.08;23.42;;;1.50;99.90;;;;;;5074513;28;20044;-68
2022/12/11 09:22:48;;;;;;;51.75;22.85;;;1.60;99.90;;;;;;5074573;28;20040;-68
2022/12/11 09:25:14;;;;;;;53.70;22.90;;;1.60;99.90;;;;;;5074372;28;20405;-69
2022/12/11 09:27:40;;;;;;;55.63;22.70;;;1.60;99.90;;;;;;5074675;28;20169;-69
2022/12/11 09:30:06;;;;;;;61.03;24.20;;;1.50;99.90;;;;;;5074610;28;20417;-68
2022/12/11 09:32:32;;;;;;;46.72;22.08;;;1.50;99.90;;;;;;5074255;28;20072;-68
2022/12/11 09:34:57;;;;;;;52.50;22.70;;;1.60;99.90;;;;;;5074219;28;20084;-69
2022/12/11 09:37:23;;;;;;;56.33;23.55;;;1.60;99.90;;;;;;5074216;28;20055;-69
2022/12/11 09:39:49;;;;;;;53.47;23.67;;;1.60;99.90;;;;;;5074193;28;20048;-69
2022/12/11 09:42:40;;;;;;;54.05;23.27;;;1.60;99.90;;;;;;5074036;28;20105;-69
2022/12/11 09:45:13;;;;;;;52.33;24.25;;;1.60;99.90;;;;;;5074009;28;20041;-69
2022/12/11 09:47:51;;;;;;;51.85;22.48;;;1.60;99.90;;;;;;5074194;28;20116;-68
2022/12/11 09:50:31;;;;;;;56.60;23.25;;;1.60;99.90;;;;;;5073480;28;20037;-68
2022/12/11 09:53:16;;;;;;;55.95;23.17;;;1.60;99.90;;;;;;5074043;28;20120;-69
2022/12/11 09:56:09;;;;;;;56.67;23.73;;;1.50;99.90;;;;;;5073910;28;20040;-69
2022/12/11 09:58:40;;;;;;;51.65;21.70;;;1.60;99.90;;;;;;5073942;28;20048;-69
2022/12/11 10:01:22;;;;;;;50.10;22.73;;;1.60;99.90;;;;;;5073767;28;20048;-69
2022/12/11 10:04:11;;;;;;;56.83;22.85;;;1.60;99.90;;;;;;5073621;28;20461;-69
2022/12/11 10:07:10;;;;;;;55.53;23.35;;;1.60;99.90;;;;;;5073695;28;20097;-69
2022/12/11 10:09:50;;;;;;;51.10;22.55;;;1.70;99.90;;;;;;5073686;28;20123;-69
2022/12/11 10:12:51;;;;;;;49.08;21.27;;;1.60;99.90;;;;;;5073882;28;20202;-69
2022/12/11 10:15:22;;;;;;;44.85;21.77;;;1.70;99.90;;;;;;5065463;28;20056;-69
2022/12/11 10:17:50;;;;;;;52.90;22.60;;;1.70;99.90;;;;;;5073428;28;20416;-68
2022/12/11 10:20:35;;;;;;;46.67;21.98;;;1.70;99.90;;;;;;5073322;28;20040;-68
2022/12/11 10:23:02;;;;;;;51.40;22.27;;;1.70;99.90;;;;;;5073541;28;20037;-68
2022/12/11 10:25:35;;;;;;;51.40;21.50;;;1.70;99.90;;;;;;5073821;28;20028;-69
2022/12/11 10:28:12;;;;;;;50.47;22.77;;;1.70;99.90;;;;;;5073328;28;20076;-69
2022/12/11 10:30:42;;;;;;;52.20;22.45;;;1.70;99.90;;;;;;5056587;28;20033;-69
2022/12/11 10:33:21;;;;;;;52.80;22.60;;;1.70;99.90;;;;;;5073184;28;20040;-69
2022/12/11 10:35:54;;;;;;;50.70;20.95;;;1.70;99.90;;;;;;5073273;28;20044;-72
2022/12/11 10:38:32;;;;;;;60.58;23.50;;;1.70;99.90;;;;;;5073384;28;20040;-69
2022/12/11 10:41:02;;;;;;;52.45;21.90;;;1.70;99.90;;;;;;5072992;28;20505;-68
2022/12/11 10:43:36;;;;;;;49.92;21.10;;;1.70;99.90;;;;;;5072887;28;20416;-69
2022/12/11 10:46:03;;;;;;;52.65;23.17;;;1.70;99.90;;;;;;5073032;28;20071;-68
2022/12/11 10:48:28;;;;;;;56.47;23.83;;;1.70;99.90;;;;;;5072738;28;20040;-68
2022/12/11 10:50:58;;;;;;;51.25;21.10;;;1.80;99.90;;;;;;5072991;28;20044;-68
2022/12/11 10:53:25;;;;;;;50.33;22.20;;;1.80;99.90;;;;;;5073004;28;20043;-68
2022/12/11 10:55:51;;;;;;;46.72;20.48;;;1.70;99.90;;;;;;5072647;28;20044;-69
2022/12/11 10:58:19;;;;;;;52.88;21.85;;;1.70;99.90;;;;;;5072627;28;20117;-68
2022/12/11 11:00:48;;;;;;;47.22;21.15;;;1.70;99.90;;;;;;5072545;28;20041;-68
2022/12/11 11:03:22;;;;;;;48.05;21.33;;;1.70;99.90;;;;;;5071628;28;20052;-68
2022/12/11 11:05:49;;;;;;;50.10;20.98;;;1.70;99.90;;;;;;5072442;28;20036;-69
2022/12/11 11:08:18;;;;;;;50.72;20.25;;;1.70;99.90;;;;;;5072479;28;20106;-69
2022/12/11 11:10:53;;;;;;;50.97;21.17;;;1.70;99.90;;;;;;5072393;28;20032;-69
2022/12/11 11:13:22;;;;;;;50.63;21.77;;;1.70;99.90;;;;;;5072343;28;20040;-69
2022/12/11 11:15:48;;;;;;;49.45;22.23;;;1.70;99.90;;;;;;5072206;28;20409;-69
2022/12/11 11:18:24;;;;;;;46.72;21.30;;;1.70;99.90;;;;;;5055918;28;20524;-69
2022/12/11 11:20:50;;;;;;;49.15;20.73;;;1.70;99.90;;;;;;5072336;28;20090;-69
2022/12/11 11:23:20;;;;;;;47.08;21.73;;;1.70;99.90;;;;;;5072088;28;20040;-69
2022/12/11 11:26:06;;;;;;;50.05;22.20;;;1.70;99.90;;;;;;5072130;28;20036;-69
2022/12/11 11:28:39;;;;;;;54.42;22.25;;;1.80;99.90;;;;;;5072473;28;20076;-69
2022/12/11 11:31:10;;;;;;;50.63;21.85;;;1.80;99.90;;;;;;5072374;28;20048;-69
2022/12/11 11:33:43;;;;;;;52.90;22.05;;;1.70;99.90;;;;;;5072086;28;20040;-69
2022/12/11 11:36:20;;;;;;;52.45;22.90;;;1.80;99.90;;;;;;5072271;28;20066;-69
2022/12/11 11:38:57;;;;;;;47.65;22.05;;;1.80;99.90;;;;;;5072319;28;20056;-69
2022/12/11 11:41:28;;;;;;;53.35;23.65;;;1.80;99.90;;;;;;5072049;28;20048;-69
2022/12/11 11:44:06;;;;;;;49.92;23.13;;;1.80;99.90;;;;;;5071919;28;20051;-68
2022/12/11 11:46:44;;;;;;;49.25;21.85;;;1.90;99.90;;;;;;5072135;28;20051;-69
2022/12/11 11:49:25;;;;;;;49.08;21.73;;;1.90;99.90;;;;;;5071948;28;20055;-68
2022/12/11 11:52:24;;;;;;;48.25;22.23;;;1.90;99.90;;;;;;5072001;28;20039;-68
2022/12/11 11:54:59;;;;;;;44.63;20.73;;;1.80;99.90;;;;;;5052328;28;20056;-69
2022/12/11 11:57:46;;;;;;;54.95;22.48;;;1.80;99.90;;;;;;5071974;28;20059;-68
2022/12/11 12:00:24;;;;;;;51.83;21.45;;;1.90;99.90;;;;;;5071762;28;20459;-68
2022/12/11 12:02:55;;;;;;;54.88;22.70;;;1.90;99.90;;;;;;5071874;28;20067;-69
2022/12/11 12:05:36;;;;;;;52.67;21.85;;;1.90;99.90;;;;;;5056505;28;20051;-69
2022/12/11 12:08:15;;;;;;;53.92;22.42;;;1.90;99.90;;;;;;5071901;28;20115;-69
2022/12/11 12:10:58;;;;;;;54.17;23.38;;;1.90;99.90;;;;;;5071785;28;20036;-69
2022/12/11 12:14:03;;;;;;;45.60;20.73;;;2.00;99.90;;;;;;5072914;28;20048;-69
2022/12/11 12:16:44;;;;;;;49.17;22.85;;;2.00;99.90;;;;;;5075904;28;20102;-68
2022/12/11 12:19:37;;;;;;;50.28;22.40;;;2.00;99.90;;;;;;5075766;28;20111;-71
2022/12/11 12:22:46;;;;;;;46.90;21.52;;;2.00;99.90;;;;;;5075903;28;20044;-71
2022/12/11 12:25:21;;;;;;;49.00;21.27;;;2.00;99.90;;;;;;5075236;28;20049;-71
2022/12/11 12:27:49;;;;;;;52.92;23.00;;;2.00;99.90;;;;;;5076110;28;20041;-71
2022/12/11 12:30:17;;;;;;;57.58;24.45;;;2.00;99.90;;;;;;5075493;28;20045;-71
2022/12/11 12:32:48;;;;;;;48.17;22.60;;;2.00;99.90;;;;;;5075651;28;20417;-71
2022/12/11 12:35:29;;;;;;;50.28;23.50;;;2.00;99.90;;;;;;5075390;28;20047;-71
2022/12/11 12:38:13;;;;;;;52.58;22.90;;;2.00;99.90;;;;;;5075501;28;20151;-71
2022/12/11 12:41:12;;;;;;;52.53;24.17;;;2.00;99.90;;;;;;5075446;28;20048;-73
2022/12/11 12:44:09;;;;;;;54.85;23.10;;;1.90;99.90;;;;;;5076129;28;20032;-73
2022/12/11 12:46:58;;;;;;;53.00;23.15;;;1.90;99.90;;;;;;5075158;28;20532;-74
2022/12/11 12:49:31;;;;;;;48.60;22.17;;;1.90;99.90;;;;;;5075549;28;20435;-74
2022/12/11 12:51:58;;;;;;;52.25;23.85;;;2.00;99.90;;;;;;5075033;28;20043;-74
2022/12/11 12:54:27;;;;;;;55.00;24.77;;;1.90;99.90;;;;;;5074924;28;20037;-74
2022/12/11 12:56:53;;;;;;;54.20;23.73;;;1.90;99.90;;;;;;5074937;28;20394;-74
2022/12/11 12:59:24;;;;;;;54.85;24.23;;;1.90;99.90;;;;;;5075187;28;20063;-74
2022/12/11 13:01:55;;;;;;;54.25;24.60;;;2.00;99.90;;;;;;5074914;28;20128;-74